sensor_id;sensor_type;location;lat;lon;timestamp;P1;durP1;ratioP1;P2;durP2;ratioP2
55134;SDS011;41031;44.750;11.308;2023-07-31T00:01:46;4.83;;;2.83;;
55134;SDS011;41031;44.750;11.308;2023-07-31T00:04:13;3.60;;;2.47;;
55134;SDS011;41031;44.750;11.308;2023-07-31T00:06:41;5.17;;;2.27;;
55134;SDS011;41031;44.750;11.308;2023-07-31T00:09:08;4.33;;;2.93;;
55134;SDS011;41031;44.750;11.308;2023-07-31T00:11:36;8.33;;;2.97;;
55134;SDS011;41031;44.750;11.308;2023-07-31T00:18:15;3.93;;;2.37;;
55134;SDS011;41031;44.750;11.308;2023-07-31T00:21:43;3.73;;;2.23;;
55134;SDS011;41031;44.750;11.308;2023-07-31T00:29:42;6.03;;;2.90;;
55134;SDS011;41031;44.750;11.308;2023-07-31T00:33:03;4.00;;;2.40;;
55134;SDS011;41031;44.750;11.308;2023-07-31T00:36:24;3.50;;;2.20;;
55134;SDS011;41031;44.750;11.308;2023-07-31T00:39:45;7.17;;;2.33;;
55134;SDS011;41031;44.750;11.308;2023-07-31T00:42:23;4.70;;;2.47;;
55134;SDS011;41031;44.750;11.308;2023-07-31T00:46:12;2.83;;;2.10;;
55134;SDS011;41031;44.750;11.308;2023-07-31T00:59:56;5.60;;;2.00;;
55134;SDS011;41031;44.750;11.308;2023-07-31T01:03:02;2.77;;;1.90;;
55134;SDS011;41031;44.750;11.308;2023-07-31T01:10:59;4.40;;;2.07;;
55134;SDS011;41031;44.750;11.308;2023-07-31T01:13:35;5.50;;;2.23;;
55134;SDS011;41031;44.750;11.308;2023-07-31T01:16:03;3.80;;;2.40;;
55134;SDS011;41031;44.750;11.308;2023-07-31T01:18:31;2.57;;;2.03;;
55134;SDS011;41031;44.750;11.308;2023-07-31T01:26:38;3.57;;;2.20;;
55134;SDS011;41031;44.750;11.308;2023-07-31T01:29:13;4.90;;;2.80;;
55134;SDS011;41031;44.750;11.308;2023-07-31T01:31:53;3.67;;;2.13;;
55134;SDS011;41031;44.750;11.308;2023-07-31T01:34:22;6.17;;;3.00;;
55134;SDS011;41031;44.750;11.308;2023-07-31T01:36:50;4.37;;;2.90;;
55134;SDS011;41031;44.750;11.308;2023-07-31T01:39:17;3.67;;;1.93;;
55134;SDS011;41031;44.750;11.308;2023-07-31T01:41:49;5.53;;;2.10;;
55134;SDS011;41031;44.750;11.308;2023-07-31T01:44:19;2.30;;;2.10;;
55134;SDS011;41031;44.750;11.308;2023-07-31T01:46:56;5.17;;;2.57;;
55134;SDS011;41031;44.750;11.308;2023-07-31T01:49:29;2.40;;;2.20;;
55134;SDS011;41031;44.750;11.308;2023-07-31T01:51:57;3.73;;;2.33;;
55134;SDS011;41031;44.750;11.308;2023-07-31T01:54:25;3.33;;;2.00;;
55134;SDS011;41031;44.750;11.308;2023-07-31T01:56:56;3.03;;;2.07;;
55134;SDS011;41031;44.750;11.308;2023-07-31T01:59:23;4.13;;;2.33;;
55134;SDS011;41031;44.750;11.308;2023-07-31T02:01:51;2.63;;;2.07;;
55134;SDS011;41031;44.750;11.308;2023-07-31T02:04:20;2.73;;;2.17;;
55134;SDS011;41031;44.750;11.308;2023-07-31T02:06:50;3.40;;;2.00;;
55134;SDS011;41031;44.750;11.308;2023-07-31T02:09:17;3.27;;;2.43;;
55134;SDS011;41031;44.750;11.308;2023-07-31T02:11:45;5.43;;;2.20;;
55134;SDS011;41031;44.750;11.308;2023-07-31T02:14:12;4.10;;;2.47;;
55134;SDS011;41031;44.750;11.308;2023-07-31T02:16:39;2.60;;;2.10;;
55134;SDS011;41031;44.750;11.308;2023-07-31T02:19:09;4.00;;;2.03;;
55134;SDS011;41031;44.750;11.308;2023-07-31T02:21:37;4.50;;;2.33;;
55134;SDS011;41031;44.750;11.308;2023-07-31T02:24:04;2.57;;;2.37;;
55134;SDS011;41031;44.750;11.308;2023-07-31T02:26:32;5.10;;;2.43;;
55134;SDS011;41031;44.750;11.308;2023-07-31T02:28:59;6.47;;;2.03;;
55134;SDS011;41031;44.750;11.308;2023-07-31T02:31:27;4.00;;;2.30;;
55134;SDS011;41031;44.750;11.308;2023-07-31T02:33:55;4.17;;;2.23;;
55134;SDS011;41031;44.750;11.308;2023-07-31T02:36:22;2.60;;;1.90;;
55134;SDS011;41031;44.750;11.308;2023-07-31T02:38:50;4.80;;;1.90;;
55134;SDS011;41031;44.750;11.308;2023-07-31T02:41:17;2.43;;;2.07;;
55134;SDS011;41031;44.750;11.308;2023-07-31T02:43:45;3.10;;;2.00;;
55134;SDS011;41031;44.750;11.308;2023-07-31T02:46:16;4.90;;;2.20;;
55134;SDS011;41031;44.750;11.308;2023-07-31T02:48:43;3.03;;;2.30;;
55134;SDS011;41031;44.750;11.308;2023-07-31T02:51:11;4.50;;;2.23;;
55134;SDS011;41031;44.750;11.308;2023-07-31T02:53:38;4.57;;;2.50;;
55134;SDS011;41031;44.750;11.308;2023-07-31T02:56:05;4.33;;;2.40;;
55134;SDS011;41031;44.750;11.308;2023-07-31T02:58:33;3.17;;;2.67;;
55134;SDS011;41031;44.750;11.308;2023-07-31T03:01:00;3.00;;;2.70;;
55134;SDS011;41031;44.750;11.308;2023-07-31T03:03:27;2.97;;;2.23;;
55134;SDS011;41031;44.750;11.308;2023-07-31T03:05:58;3.13;;;2.30;;
55134;SDS011;41031;44.750;11.308;2023-07-31T03:08:25;5.67;;;2.63;;
55134;SDS011;41031;44.750;11.308;2023-07-31T03:10:53;2.90;;;2.03;;
55134;SDS011;41031;44.750;11.308;2023-07-31T03:13:23;2.63;;;2.43;;
55134;SDS011;41031;44.750;11.308;2023-07-31T03:15:50;3.10;;;2.40;;
55134;SDS011;41031;44.750;11.308;2023-07-31T03:18:17;2.50;;;2.27;;
55134;SDS011;41031;44.750;11.308;2023-07-31T03:20:45;2.27;;;2.17;;
55134;SDS011;41031;44.750;11.308;2023-07-31T03:23:13;3.20;;;2.70;;
55134;SDS011;41031;44.750;11.308;2023-07-31T03:25:41;4.27;;;2.60;;
55134;SDS011;41031;44.750;11.308;2023-07-31T03:28:27;3.97;;;2.90;;
55134;SDS011;41031;44.750;11.308;2023-07-31T03:30:54;5.87;;;3.10;;
55134;SDS011;41031;44.750;11.308;2023-07-31T03:33:22;3.37;;;2.50;;
55134;SDS011;41031;44.750;11.308;2023-07-31T03:35:49;4.07;;;2.80;;
55134;SDS011;41031;44.750;11.308;2023-07-31T03:38:17;3.00;;;2.70;;
55134;SDS011;41031;44.750;11.308;2023-07-31T03:40:45;4.07;;;3.00;;
55134;SDS011;41031;44.750;11.308;2023-07-31T03:43:12;4.17;;;2.97;;
55134;SDS011;41031;44.750;11.308;2023-07-31T03:45:39;4.27;;;2.87;;
55134;SDS011;41031;44.750;11.308;2023-07-31T03:48:10;3.13;;;2.73;;
55134;SDS011;41031;44.750;11.308;2023-07-31T03:50:41;7.57;;;3.07;;
55134;SDS011;41031;44.750;11.308;2023-07-31T03:53:08;3.60;;;2.80;;
55134;SDS011;41031;44.750;11.308;2023-07-31T03:55:38;3.70;;;2.47;;
55134;SDS011;41031;44.750;11.308;2023-07-31T03:58:06;4.47;;;2.33;;
55134;SDS011;41031;44.750;11.308;2023-07-31T04:00:33;2.63;;;2.43;;
55134;SDS011;41031;44.750;11.308;2023-07-31T04:03:01;3.83;;;3.00;;
55134;SDS011;41031;44.750;11.308;2023-07-31T04:05:32;5.43;;;3.10;;
55134;SDS011;41031;44.750;11.308;2023-07-31T04:08:02;3.50;;;3.07;;
55134;SDS011;41031;44.750;11.308;2023-07-31T04:10:30;3.67;;;2.80;;
55134;SDS011;41031;44.750;11.308;2023-07-31T04:13:00;5.00;;;3.30;;
55134;SDS011;41031;44.750;11.308;2023-07-31T04:15:30;4.13;;;3.80;;
55134;SDS011;41031;44.750;11.308;2023-07-31T04:17:57;3.23;;;3.00;;
55134;SDS011;41031;44.750;11.308;2023-07-31T04:20:24;4.57;;;2.90;;
55134;SDS011;41031;44.750;11.308;2023-07-31T04:22:52;4.27;;;3.23;;
55134;SDS011;41031;44.750;11.308;2023-07-31T04:25:19;5.20;;;3.67;;
55134;SDS011;41031;44.750;11.308;2023-07-31T04:27:50;3.10;;;2.80;;
55134;SDS011;41031;44.750;11.308;2023-07-31T04:30:18;5.93;;;4.27;;
55134;SDS011;41031;44.750;11.308;2023-07-31T04:32:45;7.43;;;3.53;;
55134;SDS011;41031;44.750;11.308;2023-07-31T04:35:12;5.47;;;2.90;;
55134;SDS011;41031;44.750;11.308;2023-07-31T04:37:40;4.47;;;3.40;;
55134;SDS011;41031;44.750;11.308;2023-07-31T04:40:08;3.77;;;3.20;;
55134;SDS011;41031;44.750;11.308;2023-07-31T04:42:35;4.40;;;4.00;;
55134;SDS011;41031;44.750;11.308;2023-07-31T04:45:03;7.77;;;4.17;;
55134;SDS011;41031;44.750;11.308;2023-07-31T04:47:31;4.50;;;3.37;;
55134;SDS011;41031;44.750;11.308;2023-07-31T04:49:59;5.27;;;3.53;;
55134;SDS011;41031;44.750;11.308;2023-07-31T04:52:26;7.03;;;4.07;;
55134;SDS011;41031;44.750;11.308;2023-07-31T04:54:54;3.70;;;3.40;;
55134;SDS011;41031;44.750;11.308;2023-07-31T04:57:21;4.30;;;3.47;;
55134;SDS011;41031;44.750;11.308;2023-07-31T04:59:48;3.97;;;3.50;;
55134;SDS011;41031;44.750;11.308;2023-07-31T05:02:18;4.13;;;3.37;;
55134;SDS011;41031;44.750;11.308;2023-07-31T05:04:46;5.23;;;3.10;;
55134;SDS011;41031;44.750;11.308;2023-07-31T05:07:13;6.40;;;3.73;;
55134;SDS011;41031;44.750;11.308;2023-07-31T05:09:40;4.10;;;3.00;;
55134;SDS011;41031;44.750;11.308;2023-07-31T05:12:07;4.10;;;3.70;;
55134;SDS011;41031;44.750;11.308;2023-07-31T05:14:34;4.40;;;3.43;;
55134;SDS011;41031;44.750;11.308;2023-07-31T05:17:02;6.73;;;3.00;;
55134;SDS011;41031;44.750;11.308;2023-07-31T05:19:30;5.37;;;3.50;;
55134;SDS011;41031;44.750;11.308;2023-07-31T05:21:57;3.40;;;3.10;;
55134;SDS011;41031;44.750;11.308;2023-07-31T05:24:25;3.80;;;3.03;;
55134;SDS011;41031;44.750;11.308;2023-07-31T05:26:53;5.67;;;3.10;;
55134;SDS011;41031;44.750;11.308;2023-07-31T05:29:24;6.27;;;3.80;;
55134;SDS011;41031;44.750;11.308;2023-07-31T05:31:51;8.47;;;4.03;;
55134;SDS011;41031;44.750;11.308;2023-07-31T05:34:19;5.50;;;3.87;;
55134;SDS011;41031;44.750;11.308;2023-07-31T05:36:47;6.37;;;3.80;;
55134;SDS011;41031;44.750;11.308;2023-07-31T05:39:15;6.67;;;4.57;;
55134;SDS011;41031;44.750;11.308;2023-07-31T05:41:42;7.30;;;4.50;;
55134;SDS011;41031;44.750;11.308;2023-07-31T05:44:09;6.90;;;4.47;;
55134;SDS011;41031;44.750;11.308;2023-07-31T05:46:40;4.87;;;4.43;;
55134;SDS011;41031;44.750;11.308;2023-07-31T05:49:09;3.20;;;2.90;;
55134;SDS011;41031;44.750;11.308;2023-07-31T05:51:37;5.60;;;3.23;;
55134;SDS011;41031;44.750;11.308;2023-07-31T05:54:04;5.53;;;3.10;;
55134;SDS011;41031;44.750;11.308;2023-07-31T05:56:34;6.03;;;3.23;;
55134;SDS011;41031;44.750;11.308;2023-07-31T05:59:02;4.27;;;3.20;;
55134;SDS011;41031;44.750;11.308;2023-07-31T06:01:29;4.57;;;3.10;;
55134;SDS011;41031;44.750;11.308;2023-07-31T06:03:56;3.03;;;2.80;;
55134;SDS011;41031;44.750;11.308;2023-07-31T06:06:24;4.03;;;2.87;;
55134;SDS011;41031;44.750;11.308;2023-07-31T06:08:54;3.83;;;2.40;;
55134;SDS011;41031;44.750;11.308;2023-07-31T06:11:22;3.50;;;3.20;;
55134;SDS011;41031;44.750;11.308;2023-07-31T06:13:51;4.97;;;2.70;;
55134;SDS011;41031;44.750;11.308;2023-07-31T06:16:18;4.50;;;3.20;;
55134;SDS011;41031;44.750;11.308;2023-07-31T06:18:48;3.03;;;2.50;;
55134;SDS011;41031;44.750;11.308;2023-07-31T06:21:19;2.60;;;2.40;;
55134;SDS011;41031;44.750;11.308;2023-07-31T06:23:46;2.77;;;2.13;;
55134;SDS011;41031;44.750;11.308;2023-07-31T06:26:14;6.07;;;2.40;;
55134;SDS011;41031;44.750;11.308;2023-07-31T06:28:41;2.80;;;2.60;;
55134;SDS011;41031;44.750;11.308;2023-07-31T06:31:09;3.43;;;2.53;;
55134;SDS011;41031;44.750;11.308;2023-07-31T06:33:37;2.27;;;2.07;;
55134;SDS011;41031;44.750;11.308;2023-07-31T06:36:04;3.50;;;3.20;;
55134;SDS011;41031;44.750;11.308;2023-07-31T06:38:34;3.40;;;2.43;;
55134;SDS011;41031;44.750;11.308;2023-07-31T06:41:04;3.10;;;2.43;;
55134;SDS011;41031;44.750;11.308;2023-07-31T06:43:32;3.07;;;2.07;;
55134;SDS011;41031;44.750;11.308;2023-07-31T06:46:04;4.97;;;2.30;;
55134;SDS011;41031;44.750;11.308;2023-07-31T06:48:35;2.97;;;2.33;;
55134;SDS011;41031;44.750;11.308;2023-07-31T06:51:04;1.97;;;1.87;;
55134;SDS011;41031;44.750;11.308;2023-07-31T06:53:31;3.43;;;2.37;;
55134;SDS011;41031;44.750;11.308;2023-07-31T06:55:59;3.27;;;2.30;;
55134;SDS011;41031;44.750;11.308;2023-07-31T06:58:34;2.37;;;1.87;;
55134;SDS011;41031;44.750;11.308;2023-07-31T07:01:01;3.40;;;1.87;;
55134;SDS011;41031;44.750;11.308;2023-07-31T07:03:29;1.60;;;1.50;;
55134;SDS011;41031;44.750;11.308;2023-07-31T07:05:56;4.83;;;2.37;;
55134;SDS011;41031;44.750;11.308;2023-07-31T07:08:25;3.13;;;2.00;;
55134;SDS011;41031;44.750;11.308;2023-07-31T07:10:53;3.07;;;2.67;;
55134;SDS011;41031;44.750;11.308;2023-07-31T07:13:21;3.53;;;2.00;;
55134;SDS011;41031;44.750;11.308;2023-07-31T07:15:52;2.63;;;2.30;;
55134;SDS011;41031;44.750;11.308;2023-07-31T07:18:20;3.87;;;2.70;;
55134;SDS011;41031;44.750;11.308;2023-07-31T07:20:50;3.37;;;2.50;;
55134;SDS011;41031;44.750;11.308;2023-07-31T07:23:21;5.70;;;2.60;;
55134;SDS011;41031;44.750;11.308;2023-07-31T07:25:49;3.03;;;2.30;;
55134;SDS011;41031;44.750;11.308;2023-07-31T07:28:20;3.70;;;2.50;;
55134;SDS011;41031;44.750;11.308;2023-07-31T07:30:51;4.23;;;2.53;;
55134;SDS011;41031;44.750;11.308;2023-07-31T07:33:22;3.07;;;2.53;;
55134;SDS011;41031;44.750;11.308;2023-07-31T07:35:49;2.93;;;2.10;;
55134;SDS011;41031;44.750;11.308;2023-07-31T07:38:16;6.50;;;2.30;;
55134;SDS011;41031;44.750;11.308;2023-07-31T07:40:45;5.20;;;2.47;;
55134;SDS011;41031;44.750;11.308;2023-07-31T07:43:20;2.73;;;2.07;;
55134;SDS011;41031;44.750;11.308;2023-07-31T07:45:47;3.33;;;1.83;;
55134;SDS011;41031;44.750;11.308;2023-07-31T07:48:17;2.17;;;1.97;;
55134;SDS011;41031;44.750;11.308;2023-07-31T07:50:47;1.87;;;1.77;;
55134;SDS011;41031;44.750;11.308;2023-07-31T07:53:15;2.67;;;1.90;;
55134;SDS011;41031;44.750;11.308;2023-07-31T07:55:43;3.53;;;1.53;;
55134;SDS011;41031;44.750;11.308;2023-07-31T07:58:10;3.37;;;2.23;;
55134;SDS011;41031;44.750;11.308;2023-07-31T08:00:38;5.23;;;1.90;;
55134;SDS011;41031;44.750;11.308;2023-07-31T08:03:06;3.37;;;2.03;;
55134;SDS011;41031;44.750;11.308;2023-07-31T08:05:34;5.53;;;2.13;;
55134;SDS011;41031;44.750;11.308;2023-07-31T08:08:05;2.00;;;1.53;;
55134;SDS011;41031;44.750;11.308;2023-07-31T08:10:32;2.47;;;1.87;;
55134;SDS011;41031;44.750;11.308;2023-07-31T08:13:00;2.40;;;1.60;;
55134;SDS011;41031;44.750;11.308;2023-07-31T08:15:27;2.17;;;1.97;;
55134;SDS011;41031;44.750;11.308;2023-07-31T08:17:57;3.53;;;1.60;;
55134;SDS011;41031;44.750;11.308;2023-07-31T08:20:26;2.30;;;1.87;;
55134;SDS011;41031;44.750;11.308;2023-07-31T08:22:56;3.10;;;2.20;;
55134;SDS011;41031;44.750;11.308;2023-07-31T08:25:24;3.33;;;1.90;;
55134;SDS011;41031;44.750;11.308;2023-07-31T08:27:51;1.63;;;1.53;;
55134;SDS011;41031;44.750;11.308;2023-07-31T08:30:19;3.20;;;1.80;;
55134;SDS011;41031;44.750;11.308;2023-07-31T08:32:48;1.60;;;1.50;;
55134;SDS011;41031;44.750;11.308;2023-07-31T08:35:16;2.33;;;1.63;;
55134;SDS011;41031;44.750;11.308;2023-07-31T08:37:43;2.10;;;1.60;;
55134;SDS011;41031;44.750;11.308;2023-07-31T08:40:11;2.17;;;1.87;;
55134;SDS011;41031;44.750;11.308;2023-07-31T08:42:49;2.27;;;1.90;;
55134;SDS011;41031;44.750;11.308;2023-07-31T08:45:29;2.17;;;1.80;;
55134;SDS011;41031;44.750;11.308;2023-07-31T08:47:58;4.40;;;2.13;;
55134;SDS011;41031;44.750;11.308;2023-07-31T08:50:26;2.27;;;2.07;;
55134;SDS011;41031;44.750;11.308;2023-07-31T08:52:54;3.97;;;2.10;;
55134;SDS011;41031;44.750;11.308;2023-07-31T08:55:24;2.13;;;1.90;;
55134;SDS011;41031;44.750;11.308;2023-07-31T08:57:52;2.93;;;1.67;;
55134;SDS011;41031;44.750;11.308;2023-07-31T09:00:20;2.37;;;2.17;;
55134;SDS011;41031;44.750;11.308;2023-07-31T09:02:56;1.80;;;1.70;;
55134;SDS011;41031;44.750;11.308;2023-07-31T09:05:28;2.20;;;1.63;;
55134;SDS011;41031;44.750;11.308;2023-07-31T09:08:00;3.03;;;1.90;;
55134;SDS011;41031;44.750;11.308;2023-07-31T09:10:31;4.30;;;1.97;;
55134;SDS011;41031;44.750;11.308;2023-07-31T09:12:59;1.90;;;1.70;;
55134;SDS011;41031;44.750;11.308;2023-07-31T09:15:27;3.20;;;2.00;;
55134;SDS011;41031;44.750;11.308;2023-07-31T09:18:04;2.70;;;1.70;;
55134;SDS011;41031;44.750;11.308;2023-07-31T09:20:33;2.83;;;2.00;;
55134;SDS011;41031;44.750;11.308;2023-07-31T09:23:13;5.50;;;1.87;;
55134;SDS011;41031;44.750;11.308;2023-07-31T09:25:43;7.63;;;2.43;;
55134;SDS011;41031;44.750;11.308;2023-07-31T09:28:13;2.67;;;1.90;;
55134;SDS011;41031;44.750;11.308;2023-07-31T09:30:47;1.70;;;1.60;;
55134;SDS011;41031;44.750;11.308;2023-07-31T09:33:17;1.97;;;1.47;;
55134;SDS011;41031;44.750;11.308;2023-07-31T09:35:46;2.67;;;1.90;;
55134;SDS011;41031;44.750;11.308;2023-07-31T09:38:17;2.37;;;1.60;;
55134;SDS011;41031;44.750;11.308;2023-07-31T09:40:45;1.77;;;1.67;;
55134;SDS011;41031;44.750;11.308;2023-07-31T09:43:19;4.53;;;1.70;;
55134;SDS011;41031;44.750;11.308;2023-07-31T09:45:48;4.13;;;2.03;;
55134;SDS011;41031;44.750;11.308;2023-07-31T09:48:25;4.07;;;1.97;;
55134;SDS011;41031;44.750;11.308;2023-07-31T09:50:54;2.07;;;1.80;;
55134;SDS011;41031;44.750;11.308;2023-07-31T09:53:28;5.10;;;2.03;;
55134;SDS011;41031;44.750;11.308;2023-07-31T09:56:04;2.80;;;1.60;;
55134;SDS011;41031;44.750;11.308;2023-07-31T09:58:34;3.17;;;1.60;;
55134;SDS011;41031;44.750;11.308;2023-07-31T10:01:02;1.83;;;1.40;;
55134;SDS011;41031;44.750;11.308;2023-07-31T10:03:30;5.83;;;1.60;;
55134;SDS011;41031;44.750;11.308;2023-07-31T10:06:04;1.83;;;1.60;;
55134;SDS011;41031;44.750;11.308;2023-07-31T10:08:35;2.33;;;1.67;;
55134;SDS011;41031;44.750;11.308;2023-07-31T10:11:04;2.30;;;1.70;;
55134;SDS011;41031;44.750;11.308;2023-07-31T10:13:32;5.77;;;1.80;;
55134;SDS011;41031;44.750;11.308;2023-07-31T10:16:00;2.27;;;1.33;;
55134;SDS011;41031;44.750;11.308;2023-07-31T10:18:31;1.80;;;1.40;;
55134;SDS011;41031;44.750;11.308;2023-07-31T10:20:59;1.73;;;1.63;;
55134;SDS011;41031;44.750;11.308;2023-07-31T10:23:26;2.20;;;1.60;;
55134;SDS011;41031;44.750;11.308;2023-07-31T10:25:57;2.30;;;1.50;;
55134;SDS011;41031;44.750;11.308;2023-07-31T10:28:27;5.20;;;1.80;;
55134;SDS011;41031;44.750;11.308;2023-07-31T10:30:56;1.60;;;1.50;;
55134;SDS011;41031;44.750;11.308;2023-07-31T10:33:24;1.43;;;1.33;;
55134;SDS011;41031;44.750;11.308;2023-07-31T10:36:10;1.73;;;1.50;;
55134;SDS011;41031;44.750;11.308;2023-07-31T10:38:43;4.00;;;1.57;;
55134;SDS011;41031;44.750;11.308;2023-07-31T10:41:13;2.13;;;1.93;;
55134;SDS011;41031;44.750;11.308;2023-07-31T10:43:41;1.67;;;1.57;;
55134;SDS011;41031;44.750;11.308;2023-07-31T10:46:09;4.37;;;1.53;;
55134;SDS011;41031;44.750;11.308;2023-07-31T10:48:40;1.97;;;1.87;;
55134;SDS011;41031;44.750;11.308;2023-07-31T10:51:08;3.63;;;1.87;;
55134;SDS011;41031;44.750;11.308;2023-07-31T10:53:38;2.17;;;1.70;;
55134;SDS011;41031;44.750;11.308;2023-07-31T10:56:10;2.63;;;1.70;;
55134;SDS011;41031;44.750;11.308;2023-07-31T10:58:46;1.98;;;1.50;;
55134;SDS011;41031;44.750;11.308;2023-07-31T11:01:51;1.70;;;1.60;;
55134;SDS011;41031;44.750;11.308;2023-07-31T11:04:29;3.90;;;2.03;;
55134;SDS011;41031;44.750;11.308;2023-07-31T11:06:59;1.77;;;1.67;;
55134;SDS011;41031;44.750;11.308;2023-07-31T11:09:29;2.53;;;2.10;;
55134;SDS011;41031;44.750;11.308;2023-07-31T11:12:01;1.80;;;1.70;;
55134;SDS011;41031;44.750;11.308;2023-07-31T11:14:29;3.37;;;1.67;;
55134;SDS011;41031;44.750;11.308;2023-07-31T11:16:57;2.67;;;2.13;;
55134;SDS011;41031;44.750;11.308;2023-07-31T11:19:28;2.90;;;2.38;;
55134;SDS011;41031;44.750;11.308;2023-07-31T11:21:57;2.17;;;1.97;;
55134;SDS011;41031;44.750;11.308;2023-07-31T11:24:26;2.83;;;1.87;;
55134;SDS011;41031;44.750;11.308;2023-07-31T11:26:54;4.73;;;1.90;;
55134;SDS011;41031;44.750;11.308;2023-07-31T11:29:21;2.97;;;2.10;;
55134;SDS011;41031;44.750;11.308;2023-07-31T11:31:57;1.87;;;1.63;;
55134;SDS011;41031;44.750;11.308;2023-07-31T11:34:25;2.42;;;2.20;;
55134;SDS011;41031;44.750;11.308;2023-07-31T11:36:54;2.30;;;2.07;;
55134;SDS011;41031;44.750;11.308;2023-07-31T11:39:25;1.93;;;1.83;;
55134;SDS011;41031;44.750;11.308;2023-07-31T11:41:59;2.38;;;2.17;;
55134;SDS011;41031;44.750;11.308;2023-07-31T11:44:37;1.90;;;1.80;;
55134;SDS011;41031;44.750;11.308;2023-07-31T11:47:06;3.00;;;1.70;;
55134;SDS011;41031;44.750;11.308;2023-07-31T11:49:34;2.23;;;2.03;;
55134;SDS011;41031;44.750;11.308;2023-07-31T11:52:04;2.27;;;1.93;;
55134;SDS011;41031;44.750;11.308;2023-07-31T11:54:33;3.00;;;1.93;;
55134;SDS011;41031;44.750;11.308;2023-07-31T11:57:01;3.63;;;2.20;;
55134;SDS011;41031;44.750;11.308;2023-07-31T11:59:29;2.60;;;2.20;;
55134;SDS011;41031;44.750;11.308;2023-07-31T12:01:58;2.00;;;1.80;;
55134;SDS011;41031;44.750;11.308;2023-07-31T12:04:34;3.43;;;2.00;;
55134;SDS011;41031;44.750;11.308;2023-07-31T12:07:06;4.03;;;2.50;;
55134;SDS011;41031;44.750;11.308;2023-07-31T12:09:33;5.73;;;2.07;;
55134;SDS011;41031;44.750;11.308;2023-07-31T12:14:50;4.73;;;2.30;;
55134;SDS011;41031;44.750;11.308;2023-07-31T12:17:21;2.87;;;2.67;;
55134;SDS011;41031;44.750;11.308;2023-07-31T12:19:52;2.75;;;2.47;;
55134;SDS011;41031;44.750;11.308;2023-07-31T12:22:19;3.53;;;2.50;;
55134;SDS011;41031;44.750;11.308;2023-07-31T12:24:51;2.88;;;2.40;;
55134;SDS011;41031;44.750;11.308;2023-07-31T12:27:21;5.03;;;2.03;;
55134;SDS011;41031;44.750;11.308;2023-07-31T12:29:51;2.40;;;2.20;;
55134;SDS011;41031;44.750;11.308;2023-07-31T12:32:21;4.82;;;2.10;;
55134;SDS011;41031;44.750;11.308;2023-07-31T12:34:54;3.00;;;2.20;;
55134;SDS011;41031;44.750;11.308;2023-07-31T12:37:34;2.23;;;2.10;;
55134;SDS011;41031;44.750;11.308;2023-07-31T12:40:02;2.60;;;2.40;;
55134;SDS011;41031;44.750;11.308;2023-07-31T12:42:35;3.22;;;2.40;;
55134;SDS011;41031;44.750;11.308;2023-07-31T12:45:03;2.50;;;2.30;;
55134;SDS011;41031;44.750;11.308;2023-07-31T12:47:31;7.47;;;2.53;;
55134;SDS011;41031;44.750;11.308;2023-07-31T12:50:39;3.53;;;2.73;;
55134;SDS011;41031;44.750;11.308;2023-07-31T12:53:07;2.60;;;2.40;;
55134;SDS011;41031;44.750;11.308;2023-07-31T12:55:54;2.43;;;2.23;;
55134;SDS011;41031;44.750;11.308;2023-07-31T12:58:22;2.73;;;2.23;;
55134;SDS011;41031;44.750;11.308;2023-07-31T13:00:52;3.50;;;2.33;;
55134;SDS011;41031;44.750;11.308;2023-07-31T13:03:19;2.30;;;2.10;;
55134;SDS011;41031;44.750;11.308;2023-07-31T13:05:49;2.55;;;2.20;;
55134;SDS011;41031;44.750;11.308;2023-07-31T13:08:23;2.25;;;2.00;;
55134;SDS011;41031;44.750;11.308;2023-07-31T13:11:01;8.87;;;2.33;;
55134;SDS011;41031;44.750;11.308;2023-07-31T13:13:30;4.60;;;2.17;;
55134;SDS011;41031;44.750;11.308;2023-07-31T13:15:59;2.42;;;2.20;;
55134;SDS011;41031;44.750;11.308;2023-07-31T13:18:26;2.80;;;2.60;;
55134;SDS011;41031;44.750;11.308;2023-07-31T13:20:54;2.40;;;2.20;;
55134;SDS011;41031;44.750;11.308;2023-07-31T13:23:21;2.42;;;2.20;;
55134;SDS011;41031;44.750;11.308;2023-07-31T13:25:52;2.45;;;2.25;;
55134;SDS011;41031;44.750;11.308;2023-07-31T13:28:19;2.08;;;1.92;;
55134;SDS011;41031;44.750;11.308;2023-07-31T13:30:47;3.53;;;2.28;;
55134;SDS011;41031;44.750;11.308;2023-07-31T13:33:14;3.30;;;2.00;;
55134;SDS011;41031;44.750;11.308;2023-07-31T13:36:01;2.40;;;2.20;;
55134;SDS011;41031;44.750;11.308;2023-07-31T13:38:30;2.65;;;2.42;;
55134;SDS011;41031;44.750;11.308;2023-07-31T13:41:00;4.03;;;2.47;;
55134;SDS011;41031;44.750;11.308;2023-07-31T13:43:27;3.40;;;2.08;;
55134;SDS011;41031;44.750;11.308;2023-07-31T13:45:56;4.03;;;2.33;;
55134;SDS011;41031;44.750;11.308;2023-07-31T13:48:24;2.97;;;2.37;;
55134;SDS011;41031;44.750;11.308;2023-07-31T13:50:51;3.55;;;2.30;;
55134;SDS011;41031;44.750;11.308;2023-07-31T13:53:19;2.47;;;2.28;;
55134;SDS011;41031;44.750;11.308;2023-07-31T13:55:48;3.93;;;2.80;;
55134;SDS011;41031;44.750;11.308;2023-07-31T13:58:16;2.70;;;2.47;;
55134;SDS011;41031;44.750;11.308;2023-07-31T14:00:47;2.30;;;2.10;;
55134;SDS011;41031;44.750;11.308;2023-07-31T14:03:15;6.77;;;2.20;;
55134;SDS011;41031;44.750;11.308;2023-07-31T14:05:42;3.10;;;2.10;;
55134;SDS011;41031;44.750;11.308;2023-07-31T14:08:10;2.50;;;2.20;;
55134;SDS011;41031;44.750;11.308;2023-07-31T14:10:37;3.30;;;2.10;;
55134;SDS011;41031;44.750;11.308;2023-07-31T14:13:05;2.90;;;2.60;;
55134;SDS011;41031;44.750;11.308;2023-07-31T14:15:33;2.20;;;2.08;;
55134;SDS011;41031;44.750;11.308;2023-07-31T14:18:03;2.47;;;2.27;;
55134;SDS011;41031;44.750;11.308;2023-07-31T14:20:31;3.63;;;2.40;;
55134;SDS011;41031;44.750;11.308;2023-07-31T14:22:58;3.57;;;2.50;;
55134;SDS011;41031;44.750;11.308;2023-07-31T14:25:25;4.00;;;2.57;;
55134;SDS011;41031;44.750;11.308;2023-07-31T14:27:53;2.50;;;2.07;;
55134;SDS011;41031;44.750;11.308;2023-07-31T14:30:20;2.83;;;2.40;;
55134;SDS011;41031;44.750;11.308;2023-07-31T14:32:51;3.53;;;2.37;;
55134;SDS011;41031;44.750;11.308;2023-07-31T14:35:18;3.33;;;2.20;;
55134;SDS011;41031;44.750;11.308;2023-07-31T14:37:46;5.43;;;2.27;;
55134;SDS011;41031;44.750;11.308;2023-07-31T14:40:13;2.83;;;2.27;;
55134;SDS011;41031;44.750;11.308;2023-07-31T14:42:41;2.87;;;2.43;;
55134;SDS011;41031;44.750;11.308;2023-07-31T14:45:08;6.87;;;2.40;;
55134;SDS011;41031;44.750;11.308;2023-07-31T14:47:39;2.33;;;2.10;;
55134;SDS011;41031;44.750;11.308;2023-07-31T14:50:07;2.63;;;2.17;;
55134;SDS011;41031;44.750;11.308;2023-07-31T14:52:35;2.63;;;2.10;;
55134;SDS011;41031;44.750;11.308;2023-07-31T14:55:05;2.03;;;1.80;;
55134;SDS011;41031;44.750;11.308;2023-07-31T14:57:33;3.47;;;2.40;;
55134;SDS011;41031;44.750;11.308;2023-07-31T15:00:06;2.93;;;2.00;;
55134;SDS011;41031;44.750;11.308;2023-07-31T15:02:38;2.63;;;2.30;;
55134;SDS011;41031;44.750;11.308;2023-07-31T15:05:08;3.97;;;2.10;;
55134;SDS011;41031;44.750;11.308;2023-07-31T15:07:36;2.43;;;2.23;;
55134;SDS011;41031;44.750;11.308;2023-07-31T15:10:03;2.58;;;2.08;;
55134;SDS011;41031;44.750;11.308;2023-07-31T15:12:32;3.97;;;2.30;;
55134;SDS011;41031;44.750;11.308;2023-07-31T15:14:59;3.67;;;2.27;;
55134;SDS011;41031;44.750;11.308;2023-07-31T15:17:27;2.00;;;1.90;;
55134;SDS011;41031;44.750;11.308;2023-07-31T15:19:55;1.97;;;1.87;;
55134;SDS011;41031;44.750;11.308;2023-07-31T15:22:23;2.27;;;2.03;;
55134;SDS011;41031;44.750;11.308;2023-07-31T15:24:51;6.67;;;3.83;;
55134;SDS011;41031;44.750;11.308;2023-07-31T15:27:18;12.90;;;11.77;;